Last 24 Hours

OV-Siberia 8700'

Hourly Data | America/Los_Angeles
as of 9/1/26 5:36 PM PDT
Date & Time Temp (°F) RH (%) Dew Pt (°F) Wet Bulb (°F) Wind Dir (°) Wind Spd (mph) Wind Gust (mph) WindChill (°F) Daily Min Temp (°F) Daily Max Temp (°F)
9/1/26 - 1700 44.8 53 28.9 37.3 N | 0 0.2 1.3 46.2 42.0 50.9
9/1/26 - 1600 47.7 50 29.9 39.1 N | 0 0.2 1.4 47.2 42.0 50.9
9/1/26 - 1500 46.5 50 28.9 38.1 N | 0 0.2 1.4 47.3 42.0 50.9
9/1/26 - 1400 48.7 48 29.8 39.6 N | 0 0.2 1.4 49.5 42.0 50.9
9/1/26 - 1300 49.6 42 27.3 39.0 N | 0 0.2 1.4 49.1 42.0 50.9
9/1/26 - 1200 47.8 51 30.7 39.5 N | 0 0.2 1.3 47.0 42.0 48.6
9/1/26 - 1100 45.8 56 31.0 38.6 N | 0 0.2 1.4 45.5 42.0 46.7
9/1/26 - 1000 45.5 52 29.0 37.7 N | 0 0.1 1.3 44.9 42.0 45.8
9/1/26 - 0900 44.7 49 26.9 36.5 N | 0 0.2 1.3 44.1 42.0 45.0
9/1/26 - 0800 43.8 52 27.4 36.3 N | 0 0.2 1.4 43.5 42.0 45.0
9/1/26 - 0700 43.0 57 29.0 36.4 N | 0 0.2 1.4 43.0 42.0 45.0
9/1/26 - 0600 42.7 58 28.9 36.3 N | 0 0.2 1.3 42.7 42.0 45.0
9/1/26 - 0500 42.3 70 33.2 37.8 N | 0 0.1 1.4 42.2 42.0 45.0
9/1/26 - 0400 42.3 76 35.5 38.8 N | 0 0.2 1.4 42.7 42.2 45.0
9/1/26 - 0300 43.2 73 35.3 39.2 N | 0 0.2 1.4 43.7 43.2 45.0
9/1/26 - 0200 43.9 72 35.5 39.6 N | 0 0.2 1.4 44.2 43.8 45.0
9/1/26 - 0100 44.6 74 37.0 40.6 N | 0 0.2 1.4 44.7 44.3 45.0
9/1/26 - 0000 44.8 73 36.7 40.6 N | 0 0.2 1.3 45.1 44.7 60.4
8/31/26 - 2300 45.4 73 37.2 41.1 N | 0 0.2 1.3 45.8 45.1 60.4
8/31/26 - 2200 46.4 71 37.4 41.7 N | 0 0.1 1.3 46.9 46.3 60.4
8/31/26 - 2100 47.6 68 37.5 42.3 N | 0 0.2 1.3 48.0 47.6 60.4
8/31/26 - 2000 48.4 65 37.3 42.5 N | 0 0.2 1.3 49.8 48.4 60.4
8/31/26 - 1900 51.9 59 38.0 44.4 N | 0 0.2 1.4 53.0 49.5 60.4
8/31/26 - 1800 53.8 55 38.1 45.3 N | 0 0.2 1.4 55.3 49.5 60.4
8/31/26 - 1700 54.9 53 38.2 45.8 N | 0 0.2 1.3 56.7 49.5 60.4
Max 54.9 76 38.2 45.8 - 0.2 1.4 56.7 49.5 60.4
Avg 46.4 60 33.0 39.8 - 0.2 1.3 46.7 - -
Min 42.3 42 26.9 36.3 - 0.1 1.3 42.2 42.0 45.0